Point Arena, CA

6:18 PM PST on December 17, 2014 (GMT -0800)
Sonoma County | Change Station
CLOSE
Current Station
Airport
Location: Santa Rosa,
Elevation: 125 ft
Nearby Weather Stations

Elev 125 ft 38.50 °N, 122.81 °W | Updated 25 minutes ago

Rain
Rain
51 °F
Feels Like 51 °F
N
6
Wind Variable Wind from ESE

Today
High -- | Low -- °F
--% Chance of Precip.
Yesterday
High -- | Low -- °F
Precip. -- in
7:27 AM 4:54 PM
Waning Crescent, 18% visible
Pressure 30.00 in
Visibility 9.0 miles
Clouds Overcast 5500 ft
Dew Point 49 °F
Humidity 92%
Rainfall 0.14 in
Snow Depth Not available.
UV 0 out of 12
Pollen 2.40 out of 12
Air Quality Not available.
Flu Activity Not available.
METAR KSTS 180153Z 11005KT 9SM -RA OVC055 11/09 A3001 RMK AO2 SLP157 P0003 T01060094

More Conditions Fewer Conditions

Pressure 30.00 in
Visibility 9.0 miles
Clouds Overcast 5500 ft
Dew Point 49 °F
Humidity 92%
Rainfall 0.14 in
Snow Depth Not available.
UV 0 out of 12
Pollen 2.40 out of 12
Air Quality Not available.
Flu Activity Not available.
METAR KSTS 180153Z 11005KT 9SM -RA OVC055 11/09 A3001 RMK AO2 SLP157 P0003 T01060094

More Conditions Fewer Conditions

10-Day Weather Forecast

Almanac

Astronomy

Dec. 17, 2014 Rise Set
Actual Time
Civil Twilight
Nautical Twilight
Astronomical Twilight
Moon
Length of Visible Light
Length of Day
Tomorrow will be .
, % of the Moon is Illuminated

Today's Extremes

State Highs State Lows

Community

WunderPhotos

Upload Photos

1,778,859 photos uploaded!

WunderBlogs® & News

Nearby

Air Quality

  Air Quality AQ Index Pollutant
Not available.

Snow Depth

Station Depth Elevation

Earthquake Activity

City Distance Mag. Time & Date
Minimum magnitude displayed is 2.5.

Coastal Water Temperatures

Place Temperature

Nearby Weather Stations